Celebrity Infinity — 9HJD9 — position and weather

sailwx.info

Track history (hours):
 
Tides and Currents Weather Stations Pressure Air Temp Water Temp Dewpoint Dewpoint Depression Visibility Wind Speed Wind Dir Waves Ship Positions

Celebrity Infinity

Last reported at 2014-Jul-29 18:06 UTC. Time now 2014-Aug-01 03:53 UTC.
Position N 63°32' W 021°58'.

Length 294 m; draft 8.3 m.

Type: Ship. MMSI: 249048000.

Date/timePositionNaut miles runAvg speedWind from/ knotsBaromVisibWave heightAir tempDewpointWater temp
2014-Jul-29 18:06N 63°32' W 021°58'1019.0
2014-Jul-29 17:33N 63°35' W 022°20'2617.7
2014-Jul-29 16:07N 63°54' W 022°58'1417.0
2014-Jul-29 15:19N 64°08' W 022°54'1418.3
2014-Jul-29 14:33N 64°10' W 022°22'1313.1
2014-Jul-29 13:33N 64°09' W 021°52'0 0.2
2014-Jul-29 12:31N 64°09' W 021°52'0 0.0
2014-Jul-29 11:31N 64°09' W 021°52'0 0.0
2014-Jul-29 10:33N 64°09' W 021°52'0 0.0
2014-Jul-29 09:33N 64°09' W 021°52'0 0.0
2014-Jul-29 08:32N 64°09' W 021°52'0 0.0
2014-Jul-29 07:32N 64°09' W 021°52'0 0.0
2014-Jul-29 06:32N 64°09' W 021°52'0 0.0
2014-Jul-29 05:31N 64°09' W 021°52'0 0.0
2014-Jul-29 04:31N 64°09' W 021°52'0 0.0
2014-Jul-29 03:33N 64°09' W 021°52'0 0.0
2014-Jul-29 02:33N 64°09' W 021°52'0 0.0
2014-Jul-29 01:32N 64°09' W 021°52'0 0.0
2014-Jul-29 00:32N 64°09' W 021°52'0 0.0
2014-Jul-28 23:28N 64°09' W 021°52'0 0.0
2014-Jul-28 22:31N 64°09' W 021°52'0 0.0
2014-Jul-28 21:31N 64°09' W 021°52'0 0.0
2014-Jul-28 20:33N 64°09' W 021°52'0 0.0
2014-Jul-28 19:33N 64°09' W 021°52'0 0.0
2014-Jul-28 18:32N 64°09' W 021°52'0 0.0
2014-Jul-28 17:32N 64°09' W 021°52'0 0.0
2014-Jul-28 16:31N 64°09' W 021°52'0 0.0
2014-Jul-28 15:31N 64°09' W 021°52'0 0.0
2014-Jul-28 14:34N 64°09' W 021°52'0 0.0
2014-Jul-28 13:33N 64°09' W 021°52'0 0.0
2014-Jul-28 12:33N 64°09' W 021°52'0 0.0
2014-Jul-28 11:32N 64°09' W 021°52'0 0.0
2014-Jul-28 10:32N 64°09' W 021°52'0 0.0
2014-Jul-28 09:31N 64°09' W 021°52'0 0.0
2014-Jul-28 08:33N 64°09' W 021°52'3 2.9
2014-Jul-28 07:33N 64°12' W 021°56'2 2.1
2014-Jul-28 06:33N 64°13' W 021°59'4 3.6
2014-Jul-28 05:33N 64°10' W 021°54'1110.7
2014-Jul-28 04:33N 64°10' W 022°18'1413.9
2014-Jul-28 03:33N 64°07' W 022°50'2912.8
2014-Jul-28 01:17N 63°39' W 022°34'1114.7
2014-Jul-28 00:33N 63°34' W 022°12'39615.1
2014-Jul-26 22:21N 62°01' W 008°10'2715.2
2014-Jul-26 20:33N 61°56' W 007°13'1514.9
2014-Jul-26 19:34N 61°56' W 006°42'5 4.9
2014-Jul-26 18:33N 62°00' W 006°46'0 0.0
2014-Jul-26 17:33N 62°00' W 006°46'0 0.0
2014-Jul-26 16:32N 62°00' W 006°46'0 0.0
2014-Jul-26 15:32N 62°00' W 006°46'0 0.0
2014-Jul-26 14:31N 62°00' W 006°46'0 0.0
2014-Jul-26 13:31N 62°00' W 006°46'0 0.0
2014-Jul-26 12:33N 62°00' W 006°46'0 0.0
2014-Jul-26 11:33N 62°00' W 006°46'0 0.0
2014-Jul-26 10:34N 62°00' W 006°46'0 0.5
2014-Jul-26 09:32N 61°60' W 006°45'0 0.0
2014-Jul-26 08:31N 61°60' W 006°45'0 0.1
2014-Jul-26 07:34N 62°00' W 006°45'1413.7
2014-Jul-26 06:33N 61°50' W 006°26'2019.9
2014-Jul-26 05:33N 61°36' W 005°56'22119.3
2014-Jul-25 18:04N 58°47' W 001°07'1019.8
2014-Jul-25 17:33N 58°38' W 001°00'2019.9
2014-Jul-25 16:33N 58°19' W 000°47'2020.0
2014-Jul-25 15:33N 58°00' W 000°34'2019.8
2014-Jul-25 14:33N 57°41' W 000°24'1919.5
2014-Jul-25 13:33N 57°22' W 000°15'1919.0
2014-Jul-25 12:33N 57°04' W 000°06'1919.0
2014-Jul-25 11:33N 56°45' E 000°02'1919.2
2014-Jul-25 10:33N 56°27' E 000°12'2119.7
2014-Jul-25 09:31N 56°07' E 000°21'1919.9
2014-Jul-25 08:33N 55°49' E 000°30'2020.2
2014-Jul-25 07:33N 55°29' E 000°38'2020.0
2014-Jul-25 06:33N 55°10' E 000°47'2019.8
2014-Jul-25 05:33N 54°51' E 000°56'1919.0
2014-Jul-25 04:33N 54°33' E 001°08'1818.2
2014-Jul-25 03:33N 54°19' E 001°29'1918.9
2014-Jul-25 02:33N 54°06' E 001°52'2019.7
2014-Jul-25 01:33N 53°54' E 002°18'1919.5
2014-Jul-25 00:33N 53°38' E 002°37'1919.4
2014-Jul-24 23:34N 53°20' E 002°48'1818.4
2014-Jul-24 22:33N 53°02' E 002°38'1818.3
2014-Jul-24 21:33N 52°45' E 002°26'1717.2
2014-Jul-24 20:33N 52°30' E 002°15'1816.8
2014-Jul-24 19:29N 52°13' E 002°03'1415.5
2014-Jul-24 18:33N 52°03' E 001°46'1111.1
2014-Jul-24 17:33N 51°57' E 001°31'9 9.1
2014-Jul-24 16:33N 51°57' E 001°17'1 0.6
2014-Jul-24 15:33N 51°57' E 001°16'0 0.0
2014-Jul-24 14:33N 51°57' E 001°16'0 0.0
2014-Jul-24 13:33N 51°57' E 001°16'0 0.0
2014-Jul-24 12:32N 51°57' E 001°16'0 0.0
2014-Jul-24 11:32N 51°57' E 001°16'0 0.0
2014-Jul-24 10:31N 51°57' E 001°16'0 0.0
2014-Jul-24 09:28N 51°57' E 001°16'0 0.0
2014-Jul-24 08:33N 51°57' E 001°16'0 0.0
2014-Jul-24 07:33N 51°57' E 001°16'0 0.0
2014-Jul-24 06:32N 51°57' E 001°16'0 0.0
2014-Jul-24 05:32N 51°57' E 001°16'0 0.0
2014-Jul-24 04:32N 51°57' E 001°16'1 0.8
2014-Jul-24 03:34N 51°57' E 001°17'9 8.8
2014-Jul-24 02:33N 51°57' E 001°31'8 7.9
2014-Jul-24 01:34N 51°51' E 001°40'1110.9
2014-Jul-24 00:34N 51°42' E 001°49'1615.7
2014-Jul-23 23:33N 51°27' E 001°57'1413.6
2014-Jul-23 22:33N 51°14' E 001°50'1616.1
2014-Jul-23 21:33N 51°01' E 001°35'1818.2
2014-Jul-23 20:33N 50°45' E 001°22'1919.3
2014-Jul-23 19:33N 50°31' E 001°01'2019.5
2014-Jul-23 18:33N 50°26' E 000°31'2420.0
2014-Jul-23 17:21N 50°20' W 000°05'23017.6
2014-Jul-23 04:16N 50°02' W 006°03'1619.7
2014-Jul-23 03:29N 50°18' W 006°03'1819.3
2014-Jul-23 02:32N 50°36' W 006°04'1919.0
2014-Jul-23 01:33N 50°54' W 006°03'5919.8
2014-Jul-22 22:33N 51°53' W 005°53'2121.1
2014-Jul-22 21:32N 52°13' W 005°38'6118.8
2014-Jul-22 18:16N 53°08' W 004°54'1317.4
2014-Jul-22 17:32N 53°19' W 004°44'4 3.0
2014-Jul-22 16:08N 53°20' W 004°37'0 0.0
2014-Jul-22 15:32N 53°20' W 004°37'0 0.0
2014-Jul-22 14:25N 53°20' W 004°37'0 0.0
2014-Jul-22 13:28N 53°20' W 004°37'0 0.0
2014-Jul-22 12:09N 53°20' W 004°37'0 0.0
2014-Jul-22 08:17N 53°20' W 004°37'5010.3
2014-Jul-22 03:23N 54°06' W 005°11'1417.2
2014-Jul-22 02:33N 54°19' W 005°03'1817.8
2014-Jul-22 01:34N 54°36' W 005°09'1818.2
2014-Jul-22 00:33N 54°53' W 005°19'1716.7
2014-Jul-21 23:34N 55°10' W 005°19'1817.8
2014-Jul-21 22:33N 55°24' W 005°00'1817.8
2014-Jul-21 21:33N 55°42' W 004°59'1615.9
2014-Jul-21 20:33N 55°57' W 004°52'311.9
2014-Jul-21 20:18N 55°58' W 004°46'1 1.2
2014-Jul-21 19:33N 55°57' W 004°46'0 0.0
2014-Jul-21 18:33N 55°57' W 004°46'0 0.0
2014-Jul-21 17:32N 55°57' W 004°46'0 0.0
2014-Jul-21 16:32N 55°57' W 004°46'0 0.0
2014-Jul-21 15:31N 55°57' W 004°46'0 0.0
2014-Jul-21 14:31N 55°57' W 004°46'0 0.0
2014-Jul-21 13:31N 55°57' W 004°46'0 0.0
2014-Jul-21 12:33N 55°57' W 004°46'0 0.0
2014-Jul-21 11:33N 55°57' W 004°46'0 0.0
2014-Jul-21 10:29N 55°57' W 004°46'0 0.0
2014-Jul-21 09:32N 55°57' W 004°46'0 0.1
2014-Jul-21 08:34N 55°57' W 004°46'9 8.7
2014-Jul-21 07:34N 55°51' W 004°56'1615.2
2014-Jul-21 06:32N 55°35' W 004°57'1514.5
2014-Jul-21 05:32N 55°22' W 005°05'1915.9
2014-Jul-21 04:21N 55°05' W 005°22'1316.6
2014-Jul-21 03:33N 54°53' W 005°17'1717.1
2014-Jul-21 02:33N 54°37' W 005°04'1817.5
2014-Jul-21 01:33N 54°20' W 004°57'1616.4
2014-Jul-21 00:33N 54°04' W 004°55'2120.9
2014-Jul-20 23:32N 53°50' W 004°28'2121.5
2014-Jul-20 22:33N 53°38' W 003°58'2121.0
2014-Jul-20 21:33N 53°33' W 003°24'1211.8
2014-Jul-20 20:33N 53°29' W 003°05'  
Track history (hours):
 
Tides and Currents Weather Stations Pressure Air Temp Water Temp Dewpoint Dewpoint Depression Visibility Wind Speed Wind Dir Waves Ship Positions

Celebrity Infinity

Last reported at 2014-Jul-29 18:06 UTC. Time now 2014-Aug-01 03:53 UTC.
Position N 63°32' W 021°58'.

Length 294 m; draft 8.3 m.

Type: Ship. MMSI: 249048000.

Date/timePositionNaut miles runAvg speedWind from/ knotsBaromVisibWave heightAir tempDewpointWater temp
2014-Jul-29 18:06N 63°32' W 021°58'1019.0
2014-Jul-29 17:33N 63°35' W 022°20'2617.7
2014-Jul-29 16:07N 63°54' W 022°58'1417.0
2014-Jul-29 15:19N 64°08' W 022°54'1418.3
2014-Jul-29 14:33N 64°10' W 022°22'1313.1
2014-Jul-29 13:33N 64°09' W 021°52'0 0.2
2014-Jul-29 12:31N 64°09' W 021°52'0 0.0
2014-Jul-29 11:31N 64°09' W 021°52'0 0.0
2014-Jul-29 10:33N 64°09' W 021°52'0 0.0
2014-Jul-29 09:33N 64°09' W 021°52'0 0.0
2014-Jul-29 08:32N 64°09' W 021°52'0 0.0
2014-Jul-29 07:32N 64°09' W 021°52'0 0.0
2014-Jul-29 06:32N 64°09' W 021°52'0 0.0
2014-Jul-29 05:31N 64°09' W 021°52'0 0.0
2014-Jul-29 04:31N 64°09' W 021°52'0 0.0
2014-Jul-29 03:33N 64°09' W 021°52'0 0.0
2014-Jul-29 02:33N 64°09' W 021°52'0 0.0
2014-Jul-29 01:32N 64°09' W 021°52'0 0.0
2014-Jul-29 00:32N 64°09' W 021°52'0 0.0
2014-Jul-28 23:28N 64°09' W 021°52'0 0.0
2014-Jul-28 22:31N 64°09' W 021°52'0 0.0
2014-Jul-28 21:31N 64°09' W 021°52'0 0.0
2014-Jul-28 20:33N 64°09' W 021°52'0 0.0
2014-Jul-28 19:33N 64°09' W 021°52'0 0.0
2014-Jul-28 18:32N 64°09' W 021°52'0 0.0
2014-Jul-28 17:32N 64°09' W 021°52'0 0.0
2014-Jul-28 16:31N 64°09' W 021°52'0 0.0
2014-Jul-28 15:31N 64°09' W 021°52'0 0.0
2014-Jul-28 14:34N 64°09' W 021°52'0 0.0
2014-Jul-28 13:33N 64°09' W 021°52'0 0.0
2014-Jul-28 12:33N 64°09' W 021°52'0 0.0
2014-Jul-28 11:32N 64°09' W 021°52'0 0.0
2014-Jul-28 10:32N 64°09' W 021°52'0 0.0
2014-Jul-28 09:31N 64°09' W 021°52'0 0.0
2014-Jul-28 08:33N 64°09' W 021°52'3 2.9
2014-Jul-28 07:33N 64°12' W 021°56'2 2.1
2014-Jul-28 06:33N 64°13' W 021°59'4 3.6
2014-Jul-28 05:33N 64°10' W 021°54'1110.7
2014-Jul-28 04:33N 64°10' W 022°18'1413.9
2014-Jul-28 03:33N 64°07' W 022°50'2912.8
2014-Jul-28 01:17N 63°39' W 022°34'1114.7
2014-Jul-28 00:33N 63°34' W 022°12'39615.1
2014-Jul-26 22:21N 62°01' W 008°10'2715.2
2014-Jul-26 20:33N 61°56' W 007°13'1514.9
2014-Jul-26 19:34N 61°56' W 006°42'5 4.9
2014-Jul-26 18:33N 62°00' W 006°46'0 0.0
2014-Jul-26 17:33N 62°00' W 006°46'0 0.0
2014-Jul-26 16:32N 62°00' W 006°46'0 0.0
2014-Jul-26 15:32N 62°00' W 006°46'0 0.0
2014-Jul-26 14:31N 62°00' W 006°46'0 0.0
2014-Jul-26 13:31N 62°00' W 006°46'0 0.0
2014-Jul-26 12:33N 62°00' W 006°46'0 0.0
2014-Jul-26 11:33N 62°00' W 006°46'0 0.0
2014-Jul-26 10:34N 62°00' W 006°46'0 0.5
2014-Jul-26 09:32N 61°60' W 006°45'0 0.0
2014-Jul-26 08:31N 61°60' W 006°45'0 0.1
2014-Jul-26 07:34N 62°00' W 006°45'1413.7
2014-Jul-26 06:33N 61°50' W 006°26'2019.9
2014-Jul-26 05:33N 61°36' W 005°56'22119.3
2014-Jul-25 18:04N 58°47' W 001°07'1019.8
2014-Jul-25 17:33N 58°38' W 001°00'2019.9
2014-Jul-25 16:33N 58°19' W 000°47'2020.0
2014-Jul-25 15:33N 58°00' W 000°34'2019.8
2014-Jul-25 14:33N 57°41' W 000°24'1919.5
2014-Jul-25 13:33N 57°22' W 000°15'1919.0
2014-Jul-25 12:33N 57°04' W 000°06'1919.0
2014-Jul-25 11:33N 56°45' E 000°02'1919.2
2014-Jul-25 10:33N 56°27' E 000°12'2119.7
2014-Jul-25 09:31N 56°07' E 000°21'1919.9
2014-Jul-25 08:33N 55°49' E 000°30'2020.2
2014-Jul-25 07:33N 55°29' E 000°38'2020.0
2014-Jul-25 06:33N 55°10' E 000°47'2019.8
2014-Jul-25 05:33N 54°51' E 000°56'1919.0
2014-Jul-25 04:33N 54°33' E 001°08'1818.2
2014-Jul-25 03:33N 54°19' E 001°29'1918.9
2014-Jul-25 02:33N 54°06' E 001°52'2019.7
2014-Jul-25 01:33N 53°54' E 002°18'1919.5
2014-Jul-25 00:33N 53°38' E 002°37'1919.4
2014-Jul-24 23:34N 53°20' E 002°48'1818.4
2014-Jul-24 22:33N 53°02' E 002°38'1818.3
2014-Jul-24 21:33N 52°45' E 002°26'1717.2
2014-Jul-24 20:33N 52°30' E 002°15'1816.8
2014-Jul-24 19:29N 52°13' E 002°03'1415.5
2014-Jul-24 18:33N 52°03' E 001°46'1111.1
2014-Jul-24 17:33N 51°57' E 001°31'9 9.1
2014-Jul-24 16:33N 51°57' E 001°17'1 0.6
2014-Jul-24 15:33N 51°57' E 001°16'0 0.0
2014-Jul-24 14:33N 51°57' E 001°16'0 0.0
2014-Jul-24 13:33N 51°57' E 001°16'0 0.0
2014-Jul-24 12:32N 51°57' E 001°16'0 0.0
2014-Jul-24 11:32N 51°57' E 001°16'0 0.0
2014-Jul-24 10:31N 51°57' E 001°16'0 0.0
2014-Jul-24 09:28N 51°57' E 001°16'0 0.0
2014-Jul-24 08:33N 51°57' E 001°16'0 0.0
2014-Jul-24 07:33N 51°57' E 001°16'0 0.0
2014-Jul-24 06:32N 51°57' E 001°16'0 0.0
2014-Jul-24 05:32N 51°57' E 001°16'0 0.0
2014-Jul-24 04:32N 51°57' E 001°16'1 0.8
2014-Jul-24 03:34N 51°57' E 001°17'9 8.8
2014-Jul-24 02:33N 51°57' E 001°31'8 7.9
2014-Jul-24 01:34N 51°51' E 001°40'1110.9
2014-Jul-24 00:34N 51°42' E 001°49'1615.7
2014-Jul-23 23:33N 51°27' E 001°57'1413.6
2014-Jul-23 22:33N 51°14' E 001°50'1616.1
2014-Jul-23 21:33N 51°01' E 001°35'1818.2
2014-Jul-23 20:33N 50°45' E 001°22'1919.3
2014-Jul-23 19:33N 50°31' E 001°01'2019.5
2014-Jul-23 18:33N 50°26' E 000°31'2420.0
2014-Jul-23 17:21N 50°20' W 000°05'23017.6
2014-Jul-23 04:16N 50°02' W 006°03'1619.7
2014-Jul-23 03:29N 50°18' W 006°03'1819.3
2014-Jul-23 02:32N 50°36' W 006°04'1919.0
2014-Jul-23 01:33N 50°54' W 006°03'5919.8
2014-Jul-22 22:33N 51°53' W 005°53'2121.1
2014-Jul-22 21:32N 52°13' W 005°38'6118.8
2014-Jul-22 18:16N 53°08' W 004°54'1317.4
2014-Jul-22 17:32N 53°19' W 004°44'4 3.0
2014-Jul-22 16:08N 53°20' W 004°37'0 0.0
2014-Jul-22 15:32N 53°20' W 004°37'0 0.0
2014-Jul-22 14:25N 53°20' W 004°37'0 0.0
2014-Jul-22 13:28N 53°20' W 004°37'0 0.0
2014-Jul-22 12:09N 53°20' W 004°37'0 0.0
2014-Jul-22 08:17N 53°20' W 004°37'5010.3
2014-Jul-22 03:23N 54°06' W 005°11'1417.2
2014-Jul-22 02:33N 54°19' W 005°03'1817.8
2014-Jul-22 01:34N 54°36' W 005°09'1818.2
2014-Jul-22 00:33N 54°53' W 005°19'1716.7
2014-Jul-21 23:34N 55°10' W 005°19'1817.8
2014-Jul-21 22:33N 55°24' W 005°00'1817.8
2014-Jul-21 21:33N 55°42' W 004°59'1615.9
2014-Jul-21 20:33N 55°57' W 004°52'311.9
2014-Jul-21 20:18N 55°58' W 004°46'1 1.2
2014-Jul-21 19:33N 55°57' W 004°46'0 0.0
2014-Jul-21 18:33N 55°57' W 004°46'0 0.0
2014-Jul-21 17:32N 55°57' W 004°46'0 0.0
2014-Jul-21 16:32N 55°57' W 004°46'0 0.0
2014-Jul-21 15:31N 55°57' W 004°46'0 0.0
2014-Jul-21 14:31N 55°57' W 004°46'0 0.0
2014-Jul-21 13:31N 55°57' W 004°46'0 0.0
2014-Jul-21 12:33N 55°57' W 004°46'0 0.0
2014-Jul-21 11:33N 55°57' W 004°46'0 0.0
2014-Jul-21 10:29N 55°57' W 004°46'0 0.0
2014-Jul-21 09:32N 55°57' W 004°46'0 0.1
2014-Jul-21 08:34N 55°57' W 004°46'9 8.7
2014-Jul-21 07:34N 55°51' W 004°56'1615.2
2014-Jul-21 06:32N 55°35' W 004°57'1514.5
2014-Jul-21 05:32N 55°22' W 005°05'1915.9
2014-Jul-21 04:21N 55°05' W 005°22'1316.6
2014-Jul-21 03:33N 54°53' W 005°17'1717.1
2014-Jul-21 02:33N 54°37' W 005°04'1817.5
2014-Jul-21 01:33N 54°20' W 004°57'1616.4
2014-Jul-21 00:33N 54°04' W 004°55'2120.9
2014-Jul-20 23:32N 53°50' W 004°28'2121.5
2014-Jul-20 22:33N 53°38' W 003°58'2121.0
2014-Jul-20 21:33N 53°33' W 003°24'1211.8
2014-Jul-20 20:33N 53°29' W 003°05'  

Dump ship's entire track history